Time;durP1;ratioP1;P1;durP2;ratioP2;P2;SDS_P1;SDS_P2;PMS_P1;PMS_P2;Temp;Humidity;BMP_temperature;BMP_pressure;BME280_temperature;BME280_humidity;BME280_pressure;Samples;Min_cycle;Max_cycle;Signal;HPM_P1;HPM_P2
2023/11/05 00:01:19;;;;;;;5.32;1.15;;;;;;;19.54;48.64;97048.72;5047201;28;20025;-69
2023/11/05 00:03:45;;;;;;;5.03;1.60;;;;;;;19.53;48.68;97050.53;5047256;28;20122;-72
2023/11/05 00:06:11;;;;;;;3.72;1.00;;;;;;;19.51;48.45;97047.31;5045936;28;20021;-72
2023/11/05 00:08:37;;;;;;;3.55;1.30;;;;;;;19.52;48.58;97051.56;5047165;28;20068;-71
2023/11/05 00:11:03;;;;;;;4.97;1.20;;;;;;;19.51;48.52;97052.59;5047371;28;20540;-73
2023/11/05 00:13:29;;;;;;;5.05;1.60;;;;;;;19.49;48.74;97044.09;5047350;28;20466;-72
2023/11/05 00:15:54;;;;;;;5.22;1.17;;;;;;;19.51;48.60;97033.31;5047210;28;20025;-70
2023/11/05 00:18:20;;;;;;;3.78;1.15;;;;;;;19.48;48.40;97037.19;5046881;28;20021;-68
2023/11/05 00:20:46;;;;;;;4.90;1.20;;;;;;;19.49;48.37;97035.38;5046700;28;20110;-70
2023/11/05 00:23:11;;;;;;;4.75;1.00;;;;;;;19.46;48.49;97025.28;5046426;28;20475;-70
2023/11/05 00:25:37;;;;;;;3.28;1.30;;;;;;;19.48;48.43;97028.47;5046538;28;20111;-71
2023/11/05 00:28:03;;;;;;;4.72;1.13;;;;;;;19.45;48.36;97024.44;5046809;28;20081;-73
2023/11/05 00:30:28;;;;;;;6.35;1.20;;;;;;;19.45;48.42;97018.38;5046410;28;20041;-72
2023/11/05 00:32:54;;;;;;;4.00;1.02;;;;;;;19.45;48.66;97021.81;5046558;28;20051;-70
2023/11/05 00:35:19;;;;;;;4.32;1.15;;;;;;;19.45;48.44;97011.25;5046353;28;20150;-73
2023/11/05 00:37:44;;;;;;;4.75;1.00;;;;;;;19.44;48.47;97020.22;5045974;28;20491;-71
2023/11/05 00:40:10;;;;;;;2.92;1.05;;;;;;;19.43;48.18;97012.50;5046680;28;20458;-72
2023/11/05 00:42:37;;;;;;;4.50;1.00;;;;;;;19.42;48.45;97008.25;5045746;28;20057;-69
2023/11/05 00:45:03;;;;;;;3.83;1.25;;;;;;;19.42;48.43;97006.41;5046414;28;20029;-70
2023/11/05 00:47:28;;;;;;;3.33;1.00;;;;;;;19.40;48.26;97005.84;5046274;28;20049;-72
2023/11/05 00:49:53;;;;;;;3.40;1.00;;;;;;;19.40;48.39;97001.34;5046523;28;20025;-69
2023/11/05 00:52:19;;;;;;;3.30;0.90;;;;;;;19.40;48.27;97001.34;5046303;28;20029;-70
2023/11/05 00:54:44;;;;;;;3.60;1.13;;;;;;;19.39;48.42;96999.75;5045976;28;20060;-72
2023/11/05 00:57:09;;;;;;;3.85;1.20;;;;;;;19.39;48.41;96998.94;5046567;28;20029;-71
2023/11/05 00:59:35;;;;;;;3.47;1.00;;;;;;;19.36;48.28;96986.22;5046391;28;20447;-71
2023/11/05 01:02:00;;;;;;;4.35;0.90;;;;;;;19.36;48.38;96989.66;5028229;28;20056;-71
2023/11/05 01:04:25;;;;;;;4.43;1.15;;;;;;;19.37;48.36;96995.72;5046328;28;20021;-70
2023/11/05 01:06:51;;;;;;;3.80;1.20;;;;;;;19.36;48.52;96992.28;5046006;28;20108;-71
2023/11/05 01:09:16;;;;;;;4.38;1.27;;;;;;;19.36;48.34;96983.56;5046225;28;20035;-70
2023/11/05 01:11:41;;;;;;;3.35;1.23;;;;;;;19.34;48.42;96989.09;5046174;28;20193;-70
2023/11/05 01:14:07;;;;;;;4.40;1.02;;;;;;;19.35;48.11;96979.31;5046122;28;20128;-71
2023/11/05 01:16:32;;;;;;;4.72;1.23;;;;;;;19.33;48.40;96982.19;5046090;28;20052;-70
2023/11/05 01:18:57;;;;;;;4.23;1.10;;;;;;;19.34;48.24;96988.25;5046234;28;20025;-71
2023/11/05 01:21:23;;;;;;;3.70;1.02;;;;;;;19.33;48.15;96979.53;5045856;28;20262;-70
2023/11/05 01:23:48;;;;;;;3.83;1.00;;;;;;;19.32;48.20;96980.56;5046264;28;20092;-70
2023/11/05 01:26:13;;;;;;;4.00;1.00;;;;;;;19.30;48.34;96977.34;5046162;28;20075;-69
2023/11/05 01:28:40;;;;;;;4.43;1.25;;;;;;;19.31;48.17;96978.16;5046540;28;20048;-72
2023/11/05 01:31:05;;;;;;;3.63;1.00;;;;;;;19.30;48.39;96973.91;5045875;28;20032;-72
2023/11/05 01:33:31;;;;;;;5.28;1.10;;;;;;;19.30;48.31;96974.72;5046108;28;20057;-69
2023/11/05 01:35:56;;;;;;;3.55;1.10;;;;;;;19.29;48.31;96969.66;5045744;28;20071;-72
2023/11/05 01:38:21;;;;;;;3.95;1.10;;;;;;;19.28;48.33;96971.50;5045977;28;20488;-69
2023/11/05 01:40:47;;;;;;;4.80;1.40;;;;;;;19.30;48.49;96971.28;5046299;28;20033;-69
2023/11/05 01:43:12;;;;;;;3.75;1.02;;;;;;;19.29;48.46;96972.28;5046161;28;20041;-71
2023/11/05 01:45:38;;;;;;;4.72;1.40;;;;;;;19.27;48.30;96969.88;5043216;28;20032;-72
2023/11/05 01:48:04;;;;;;;3.05;0.90;;;;;;;19.28;48.21;96955.66;5045933;28;20040;-72
2023/11/05 01:50:29;;;;;;;5.03;1.20;;;;;;;19.27;48.32;96946.13;5045284;28;20021;-69
2023/11/05 01:52:55;;;;;;;4.93;1.27;;;;;;;19.26;48.31;96946.34;5045566;28;20052;-70
2023/11/05 01:55:25;;;;;;;4.70;1.20;;;;;;;19.25;48.22;96942.09;5046033;28;20029;-69
2023/11/05 01:57:52;;;;;;;3.65;1.20;;;;;;;19.25;48.17;96950.00;5045529;28;20092;-73
2023/11/05 02:00:18;;;;;;;4.18;1.30;;;;;;;19.24;48.49;96936.00;5045549;28;20087;-71
2023/11/05 02:02:44;;;;;;;6.22;1.30;;;;;;;19.25;48.32;96936.81;5046037;28;20043;-68
2023/11/05 02:05:09;;;;;;;4.00;1.00;;;;;;;19.25;48.39;96932.34;5045570;28;20044;-70
2023/11/05 02:07:36;;;;;;;7.10;1.23;;;;;;;19.24;48.60;96925.47;5048462;28;20017;-70
2023/11/05 02:10:03;;;;;;;3.95;0.80;;;;;;;19.23;48.49;96931.75;5049736;28;20021;-71
2023/11/05 02:12:28;;;;;;;5.20;1.10;;;;;;;19.23;48.31;96928.31;5049458;28;20032;-72
2023/11/05 02:14:54;;;;;;;3.60;0.93;;;;;;;19.24;48.36;96932.56;5049409;28;20519;-71
2023/11/05 02:17:20;;;;;;;3.55;0.90;;;;;;;19.23;48.43;96917.75;5047919;28;20060;-70
2023/11/05 02:19:47;;;;;;;5.50;0.80;;;;;;;19.22;48.34;96927.53;5047460;28;20021;-68
2023/11/05 02:22:15;;;;;;;4.78;1.10;;;;;;;19.20;48.52;96917.19;5048575;28;20112;-69
2023/11/05 02:24:44;;;;;;;3.55;1.02;;;;;;;19.22;48.46;96922.25;5030865;28;20452;-72
2023/11/05 02:27:10;;;;;;;2.03;0.70;;;;;;;19.19;48.30;96910.28;5048558;28;20032;-70
2023/11/05 02:29:35;;;;;;;2.97;1.10;;;;;;;19.21;48.26;96910.88;5049150;28;20039;-73
2023/11/05 02:32:03;;;;;;;4.05;1.10;;;;;;;19.21;48.71;96915.34;5048151;28;20033;-69
2023/11/05 02:34:28;;;;;;;3.70;0.98;;;;;;;19.20;48.40;96919.84;5048872;28;20048;-70
2023/11/05 02:36:53;;;;;;;4.75;0.90;;;;;;;19.20;48.44;96932.19;5049002;28;20083;-70
2023/11/05 02:39:19;;;;;;;3.85;0.98;;;;;;;19.17;48.47;96925.56;5048961;28;20048;-71
2023/11/05 02:41:44;;;;;;;2.40;0.75;;;;;;;19.19;48.37;96920.84;5048309;28;20477;-71
2023/11/05 02:44:10;;;;;;;4.32;1.15;;;;;;;19.19;48.49;96920.84;5048926;28;20071;-71
2023/11/05 02:46:36;;;;;;;3.33;1.00;;;;;;;19.16;48.28;96921.31;5049169;28;20095;-72
2023/11/05 02:49:01;;;;;;;4.45;0.90;;;;;;;19.18;48.54;96921.06;5048821;28;20405;-71
2023/11/05 02:51:26;;;;;;;4.30;0.88;;;;;;;19.18;48.32;96916.63;5048848;28;20033;-70
2023/11/05 02:53:52;;;;;;;3.33;0.90;;;;;;;19.15;48.55;96922.34;5048917;28;20532;-70
2023/11/05 02:56:17;;;;;;;2.72;0.90;;;;;;;19.16;48.35;96908.09;5048711;28;20112;-70
2023/11/05 02:58:42;;;;;;;2.80;1.00;;;;;;;19.16;48.43;96920.50;5048624;28;20041;-72
2023/11/05 03:01:07;;;;;;;3.08;1.00;;;;;;;19.15;48.48;96918.88;5048460;28;20056;-72
2023/11/05 03:03:33;;;;;;;3.65;0.93;;;;;;;19.15;48.41;96921.53;5048017;28;20128;-70
2023/11/05 03:05:58;;;;;;;3.47;0.93;;;;;;;19.14;48.50;96914.66;5047887;28;20037;-71
2023/11/05 03:08:23;;;;;;;4.38;0.85;;;;;;;19.15;48.52;96910.97;5048137;28;20036;-70
2023/11/05 03:10:49;;;;;;;2.45;0.70;;;;;;;19.13;48.60;96913.84;5048034;28;20124;-70
2023/11/05 03:13:14;;;;;;;2.88;0.70;;;;;;;19.13;48.30;96905.91;5047841;28;20491;-68
2023/11/05 03:15:39;;;;;;;2.55;0.70;;;;;;;19.13;48.50;96913.03;5048335;28;20377;-70
2023/11/05 03:18:04;;;;;;;2.83;0.80;;;;;;;19.13;48.33;96910.41;5047182;28;20029;-72
2023/11/05 03:20:30;;;;;;;3.50;0.93;;;;;;;19.08;48.43;96895.25;5047248;28;20119;-70
2023/11/05 03:22:55;;;;;;;2.80;0.80;;;;;;;19.13;48.56;96905.13;5047493;28;20052;-71
2023/11/05 03:25:21;;;;;;;4.53;1.02;;;;;;;19.13;48.51;96899.84;5047216;28;20422;-71
2023/11/05 03:27:46;;;;;;;4.10;1.02;;;;;;;19.09;48.51;96894.22;5047591;28;20043;-71
2023/11/05 03:30:12;;;;;;;3.00;0.90;;;;;;;19.11;48.61;96899.28;5047705;28;20404;-73
2023/11/05 03:32:37;;;;;;;2.75;0.80;;;;;;;19.11;48.64;96907.97;5047251;28;20473;-72
2023/11/05 03:35:05;;;;;;;2.80;0.80;;;;;;;19.09;48.42;96898.69;5047889;28;20098;-70
2023/11/05 03:37:30;;;;;;;2.15;0.80;;;;;;;19.11;48.55;96899.28;5047550;28;20071;-70
2023/11/05 03:39:55;;;;;;;3.92;0.70;;;;;;;19.09;48.69;96898.69;5047510;28;20029;-70
2023/11/05 03:42:20;;;;;;;3.10;0.85;;;;;;;19.10;48.54;96900.28;5047217;28;20111;-73
2023/11/05 03:44:46;;;;;;;3.50;0.90;;;;;;;19.07;48.47;96896.25;5047238;28;20396;-70
2023/11/05 03:47:11;;;;;;;2.97;1.00;;;;;;;19.09;48.58;96910.06;5047119;28;20761;-71
2023/11/05 03:49:36;;;;;;;3.13;0.80;;;;;;;19.08;48.64;96910.28;5047588;28;20029;-73
2023/11/05 03:52:03;;;;;;;3.28;0.73;;;;;;;19.07;48.48;96911.31;5047939;28;20067;-73
2023/11/05 03:54:28;;;;;;;4.57;0.80;;;;;;;19.07;48.63;96917.38;5047514;28;20033;-70
2023/11/05 03:56:57;;;;;;;2.33;0.70;;;;;;;19.06;48.18;96907.88;5047709;28;20079;-72
2023/11/05 03:59:23;;;;;;;2.90;0.80;;;;;;;19.07;48.61;96909.44;5047553;28;20535;-70
2023/11/05 04:01:52;;;;;;;3.70;0.77;;;;;;;19.06;48.61;96909.69;5047020;28;20041;-74
2023/11/05 04:04:18;;;;;;;2.63;0.68;;;;;;;19.06;48.58;96918.41;5047609;28;20477;-72
2023/11/05 04:06:43;;;;;;;2.90;0.80;;;;;;;19.04;48.55;96909.91;5047150;28;20037;-70
2023/11/05 04:09:08;;;;;;;2.58;0.70;;;;;;;19.03;48.58;96916.22;5047358;28;20060;-70
2023/11/05 04:11:35;;;;;;;2.92;0.70;;;;;;;19.05;48.59;96918.66;5047281;28;20029;-69
2023/11/05 04:14:00;;;;;;;2.35;0.77;;;;;;;19.05;48.61;96922.06;5047568;28;20485;-69
2023/11/05 04:16:25;;;;;;;3.42;0.75;;;;;;;19.03;48.49;96919.66;5046961;28;20021;-70
2023/11/05 04:18:51;;;;;;;2.47;0.80;;;;;;;19.05;48.52;96922.06;5047274;28;20223;-72
2023/11/05 04:21:16;;;;;;;2.10;0.80;;;;;;;19.02;48.58;96915.41;5047083;28;20100;-69
2023/11/05 04:23:41;;;;;;;2.67;0.82;;;;;;;19.03;48.39;96918.88;5046263;28;20365;-70
2023/11/05 04:26:09;;;;;;;2.78;0.73;;;;;;;19.01;48.56;96924.38;5047172;28;20413;-72
2023/11/05 04:28:34;;;;;;;4.20;0.90;;;;;;;19.00;48.52;96922.75;5046502;28;20071;-69
2023/11/05 04:30:59;;;;;;;2.00;0.63;;;;;;;19.01;48.51;96921.72;5046531;28;20029;-71
2023/11/05 04:33:25;;;;;;;2.85;0.60;;;;;;;19.00;48.66;96928.03;5046889;28;20056;-73
2023/11/05 04:35:51;;;;;;;2.40;0.60;;;;;;;19.01;48.59;96926.22;5046916;28;20811;-71
2023/11/05 04:38:16;;;;;;;3.17;0.90;;;;;;;19.00;48.66;96927.22;5046923;28;20044;-73
2023/11/05 04:40:41;;;;;;;2.13;0.87;;;;;;;18.99;48.64;96929.06;5046775;28;20126;-71
2023/11/05 04:43:07;;;;;;;2.03;0.60;;;;;;;19.00;48.55;96924.59;5046524;28;20324;-71
2023/11/05 04:45:34;;;;;;;3.33;0.77;;;;;;;19.01;48.54;96926.22;5045702;28;20037;-69
2023/11/05 04:48:00;;;;;;;3.10;0.73;;;;;;;19.00;48.61;96927.22;5028485;28;20033;-71
2023/11/05 04:50:25;;;;;;;2.25;0.73;;;;;;;18.99;48.97;96931.72;5046317;28;20083;-72
2023/11/05 04:52:54;;;;;;;4.18;0.88;;;;;;;18.95;48.75;96922.63;5045375;28;20028;-72
2023/11/05 04:55:20;;;;;;;2.55;0.70;;;;;;;18.97;48.62;96930.31;5045637;28;20040;-72
2023/11/05 04:57:45;;;;;;;2.25;0.63;;;;;;;18.98;49.00;96930.09;5045467;28;20025;-73
2023/11/05 05:00:12;;;;;;;2.35;0.70;;;;;;;18.99;48.64;96930.88;5045744;28;20021;-74
2023/11/05 05:02:37;;;;;;;3.00;0.85;;;;;;;18.97;48.73;96938.22;5045978;28;20031;-69
2023/11/05 05:05:03;;;;;;;2.03;0.60;;;;;;;18.96;48.80;96934.81;5046121;28;20120;-70
2023/11/05 05:07:28;;;;;;;2.75;0.80;;;;;;;18.97;48.61;96931.13;5045615;28;20051;-72
2023/11/05 05:09:54;;;;;;;5.32;0.80;;;;;;;18.96;48.63;96936.63;5045783;28;20045;-72
2023/11/05 05:12:21;;;;;;;3.03;0.80;;;;;;;18.96;48.88;96936.63;5045729;28;20095;-71
2023/11/05 05:14:48;;;;;;;3.67;0.98;;;;;;;18.94;48.52;96933.41;5045529;28;20021;-71
2023/11/05 05:17:15;;;;;;;1.88;0.60;;;;;;;18.93;48.58;96939.69;5045728;28;20638;-72
2023/11/05 05:19:41;;;;;;;2.67;0.60;;;;;;;18.94;48.75;96936.84;5045937;28;20051;-71
2023/11/05 05:22:06;;;;;;;2.17;0.60;;;;;;;18.96;48.73;96939.25;5045171;28;20473;-73
2023/11/05 05:24:31;;;;;;;2.15;0.70;;;;;;;18.96;48.69;96941.88;5045870;28;20021;-72
2023/11/05 05:26:57;;;;;;;2.10;0.63;;;;;;;18.95;48.77;96948.22;5045380;28;20049;-71
2023/11/05 05:29:22;;;;;;;1.67;0.73;;;;;;;18.94;48.76;96943.97;5046019;28;20025;-72
2023/11/05 05:31:47;;;;;;;1.70;0.57;;;;;;;18.94;48.93;96949.22;5045306;28;20037;-69
2023/11/05 05:34:13;;;;;;;2.03;0.52;;;;;;;18.95;48.65;96950.84;5045338;28;20286;-70
2023/11/05 05:36:40;;;;;;;2.03;0.60;;;;;;;18.93;48.68;96952.88;5045385;28;20024;-71
2023/11/05 05:39:05;;;;;;;1.90;0.75;;;;;;;18.93;48.70;96953.72;5042669;28;20043;-71
2023/11/05 05:41:31;;;;;;;3.42;0.60;;;;;;;18.92;48.67;96957.38;5045120;28;20029;-72
2023/11/05 05:43:56;;;;;;;2.72;0.93;;;;;;;18.92;48.95;96959.22;5049070;28;20079;-70
2023/11/05 05:46:21;;;;;;;1.85;0.65;;;;;;;18.94;48.90;96962.44;5049774;28;20477;-71
2023/11/05 05:48:46;;;;;;;1.77;0.60;;;;;;;18.94;48.97;96965.06;5048410;28;20056;-70
2023/11/05 05:51:15;;;;;;;3.63;0.82;;;;;;;18.91;48.99;96961.03;5049951;28;20055;-70
2023/11/05 05:53:40;;;;;;;1.77;0.57;;;;;;;18.90;48.99;96970.00;5049704;28;20028;-71
2023/11/05 05:56:06;;;;;;;3.35;0.68;;;;;;;18.93;48.64;96976.63;5049075;28;20036;-70
2023/11/05 05:58:32;;;;;;;2.03;0.60;;;;;;;18.93;48.91;96976.63;5046567;28;20033;-72
2023/11/05 06:00:58;;;;;;;2.08;0.65;;;;;;;18.93;48.91;96981.91;5047568;28;20036;-70
2023/11/05 06:03:23;;;;;;;2.15;0.60;;;;;;;18.92;48.96;96986.38;5048628;28;20393;-69
2023/11/05 06:05:49;;;;;;;2.05;0.68;;;;;;;18.93;48.84;96985.38;5049172;28;20029;-73
2023/11/05 06:08:14;;;;;;;2.30;0.70;;;;;;;18.93;48.65;96984.53;5049604;28;20040;-73
2023/11/05 06:10:39;;;;;;;4.35;0.88;;;;;;;18.92;48.71;96986.38;5049346;28;20431;-73
2023/11/05 06:13:07;;;;;;;2.13;0.60;;;;;;;18.92;48.73;96980.31;5048424;28;20139;-71
2023/11/05 06:15:32;;;;;;;2.60;0.93;;;;;;;18.92;49.06;96985.59;5049418;28;20028;-73
2023/11/05 06:17:57;;;;;;;1.92;0.68;;;;;;;18.92;48.87;96988.22;5049198;28;20025;-71
2023/11/05 06:20:24;;;;;;;2.70;0.60;;;;;;;18.92;49.01;96991.66;5049641;28;20043;-74
2023/11/05 06:22:52;;;;;;;2.30;0.65;;;;;;;18.93;49.06;96990.66;5049530;28;20090;-68
2023/11/05 06:25:17;;;;;;;2.45;0.68;;;;;;;18.94;49.07;96992.25;5049714;28;20112;-73
2023/11/05 06:27:43;;;;;;;1.90;0.70;;;;;;;18.94;49.16;96996.72;5046494;28;20111;-72
2023/11/05 06:30:10;;;;;;;1.95;0.50;;;;;;;18.95;48.95;96999.13;5049102;28;20469;-73
2023/11/05 06:32:35;;;;;;;2.00;0.68;;;;;;;18.95;48.98;97004.41;5048847;28;20024;-69
2023/11/05 06:35:01;;;;;;;2.45;0.70;;;;;;;18.94;48.81;97007.28;5048894;28;20053;-74
2023/11/05 06:37:27;;;;;;;3.50;0.70;;;;;;;18.94;48.99;97008.06;5049288;28;20051;-69
2023/11/05 06:39:52;;;;;;;1.58;0.68;;;;;;;18.94;49.20;97015.97;5049040;28;20113;-70
2023/11/05 06:42:17;;;;;;;2.95;0.70;;;;;;;18.94;49.34;97021.25;5049386;28;20062;-72
2023/11/05 06:44:44;;;;;;;1.85;0.50;;;;;;;18.94;49.14;97028.38;5049013;28;20105;-68
2023/11/05 06:47:09;;;;;;;2.67;0.60;;;;;;;18.95;49.34;97028.16;5048918;28;20017;-73
2023/11/05 06:49:35;;;;;;;2.80;0.50;;;;;;;18.96;49.17;97032.41;5049313;28;20036;-69
2023/11/05 06:52:00;;;;;;;1.27;0.50;;;;;;;18.98;49.23;97040.13;5048707;28;20029;-70
2023/11/05 06:54:25;;;;;;;1.38;0.60;;;;;;;19.00;49.35;97051.25;5048915;28;20257;-69
2023/11/05 06:56:51;;;;;;;2.58;0.73;;;;;;;18.98;49.24;97043.56;5049236;28;20115;-72
2023/11/05 06:59:16;;;;;;;1.90;0.60;;;;;;;19.02;49.21;97049.97;5048982;28;20461;-70
2023/11/05 07:01:41;;;;;;;1.60;0.60;;;;;;;19.05;49.17;97056.66;5049259;28;20052;-71
2023/11/05 07:04:07;;;;;;;1.23;0.47;;;;;;;19.02;49.40;97057.91;5048836;28;20021;-72
2023/11/05 07:06:32;;;;;;;1.33;0.50;;;;;;;19.06;49.16;97060.09;5048414;28;20163;-72
2023/11/05 07:08:57;;;;;;;1.27;0.47;;;;;;;19.06;49.30;97065.38;5048347;28;20036;-72
2023/11/05 07:11:23;;;;;;;2.05;0.63;;;;;;;19.05;49.11;97069.84;5048516;28;20380;-71
2023/11/05 07:13:48;;;;;;;2.90;0.70;;;;;;;19.08;49.31;97072.06;5048529;28;20025;-69
2023/11/05 07:16:13;;;;;;;1.73;0.57;;;;;;;19.08;49.38;97068.63;5049119;28;20036;-71
2023/11/05 07:18:39;;;;;;;1.40;0.57;;;;;;;19.08;49.33;97077.31;5048399;28;20469;-70
2023/11/05 07:21:04;;;;;;;2.00;0.60;;;;;;;19.09;49.27;97078.94;5048598;28;20419;-70
2023/11/05 07:23:30;;;;;;;2.67;0.70;;;;;;;19.10;49.30;97085.81;5048561;28;20461;-71
2023/11/05 07:25:55;;;;;;;2.08;0.60;;;;;;;19.10;50.00;97083.19;5047320;28;21588;-71
2023/11/05 07:28:20;;;;;;;3.40;0.60;;;;;;;19.11;49.40;97094.56;5047935;28;20032;-68
2023/11/05 07:30:46;;;;;;;1.58;0.60;;;;;;;19.13;49.14;97101.22;5030559;28;20039;-68
2023/11/05 07:33:12;;;;;;;3.33;0.60;;;;;;;19.13;49.21;97095.13;5048291;28;20036;-71
2023/11/05 07:35:38;;;;;;;2.30;0.80;;;;;;;19.12;49.29;97098.78;5047581;28;20044;-70
2023/11/05 07:38:03;;;;;;;2.10;0.60;;;;;;;19.12;49.25;97104.06;5047386;28;20037;-72
2023/11/05 07:40:29;;;;;;;2.78;0.60;;;;;;;19.14;49.35;97104.69;5047510;28;20024;-69
2023/11/05 07:42:55;;;;;;;2.08;0.65;;;;;;;19.13;49.48;97111.78;5047163;28;20058;-69
2023/11/05 07:45:20;;;;;;;2.65;0.60;;;;;;;19.13;49.32;97111.78;5047646;28;20047;-70
2023/11/05 07:47:45;;;;;;;1.20;0.47;;;;;;;19.16;49.02;97115.81;5047227;28;20025;-72
2023/11/05 07:50:12;;;;;;;1.38;0.40;;;;;;;19.14;49.38;97128.44;5047335;28;20086;-70
2023/11/05 07:52:40;;;;;;;1.63;0.50;;;;;;;19.15;49.23;97128.22;5046233;28;20601;-71
2023/11/05 07:55:09;;;;;;;1.67;0.60;;;;;;;19.15;49.29;97138.78;5046915;28;20032;-71
2023/11/05 07:57:35;;;;;;;2.75;0.73;;;;;;;19.10;49.30;97133.31;5047140;28;20044;-70
2023/11/05 08:00:00;;;;;;;2.35;0.50;;;;;;;19.14;49.41;97144.28;5047149;28;20028;-70
2023/11/05 08:02:26;;;;;;;3.40;0.70;;;;;;;19.16;49.51;97152.75;5046631;28;20070;-72
2023/11/05 08:04:51;;;;;;;2.58;0.60;;;;;;;19.15;49.45;97146.69;5045785;28;20486;-71
2023/11/05 08:07:17;;;;;;;1.25;0.43;;;;;;;19.15;49.39;97153.78;5046912;28;20151;-69
2023/11/05 08:09:42;;;;;;;1.65;0.60;;;;;;;19.16;49.21;97160.69;5028674;28;20466;-72
2023/11/05 08:12:07;;;;;;;2.70;0.90;;;;;;;19.17;49.50;97168.38;5046914;28;20028;-73
2023/11/05 08:14:33;;;;;;;1.77;0.60;;;;;;;19.16;49.08;97166.75;5046735;28;20583;-70
2023/11/05 08:16:58;;;;;;;1.73;0.57;;;;;;;19.17;49.31;97175.50;5046677;28;20029;-72
2023/11/05 08:19:24;;;;;;;2.67;0.70;;;;;;;19.16;49.42;97173.88;5046639;28;20051;-72
2023/11/05 08:21:49;;;;;;;2.13;0.50;;;;;;;19.16;49.27;97177.31;5046661;28;20044;-70
2023/11/05 08:24:14;;;;;;;4.70;1.00;;;;;;;19.17;49.28;97178.94;5046502;28;20036;-72
2023/11/05 08:26:39;;;;;;;2.20;0.70;;;;;;;19.17;49.60;97188.69;5046593;28;20029;-72
2023/11/05 08:29:05;;;;;;;3.33;0.70;;;;;;;19.18;49.59;97190.28;5028453;28;20025;-73
2023/11/05 08:31:30;;;;;;;2.75;0.70;;;;;;;19.17;49.47;97201.91;5028590;28;20424;-72
2023/11/05 08:33:55;;;;;;;4.43;0.70;;;;;;;19.19;49.43;97208.56;5046213;28;20051;-73
2023/11/05 08:36:21;;;;;;;3.40;0.80;;;;;;;19.17;49.47;97202.69;5046464;28;20063;-74
2023/11/05 08:38:46;;;;;;;5.20;0.82;;;;;;;19.19;49.48;97213.03;5046713;28;20048;-72
2023/11/05 08:41:11;;;;;;;4.95;0.95;;;;;;;19.19;49.50;97215.66;5046505;28;20083;-74
2023/11/05 08:43:37;;;;;;;2.30;0.73;;;;;;;19.19;49.75;97223.59;5046753;28;20082;-72
2023/11/05 08:46:02;;;;;;;4.07;0.80;;;;;;;19.15;49.93;97220.59;5046933;28;20450;-72
2023/11/05 08:48:28;;;;;;;2.80;0.80;;;;;;;19.18;49.81;97227.25;5046445;28;20033;-71
2023/11/05 08:50:53;;;;;;;2.72;0.95;;;;;;;19.22;49.88;97233.72;5030774;28;20477;-71
2023/11/05 08:53:21;;;;;;;3.28;0.80;;;;;;;19.21;49.97;97240.81;5048254;28;20033;-72
2023/11/05 08:55:47;;;;;;;4.10;0.75;;;;;;;19.20;49.78;97244.50;5045645;28;20063;-70
2023/11/05 08:58:13;;;;;;;2.28;0.70;;;;;;;19.23;49.90;97253.00;5045967;28;20672;-73
2023/11/05 09:00:39;;;;;;;5.43;0.82;;;;;;;19.21;49.98;97261.91;5045936;28;20021;-71
2023/11/05 09:03:06;;;;;;;3.35;0.88;;;;;;;19.21;49.97;97261.13;5044812;28;20476;-73
2023/11/05 09:05:32;;;;;;;3.17;0.80;;;;;;;19.19;50.08;97266.63;5045859;28;20036;-73
2023/11/05 09:07:57;;;;;;;3.70;0.85;;;;;;;19.20;50.10;97270.06;5045619;28;20029;-71
2023/11/05 09:10:26;;;;;;;3.35;0.95;;;;;;;19.21;50.20;97284.88;5045578;28;20032;-71
2023/11/05 09:12:52;;;;;;;3.28;0.80;;;;;;;19.19;50.15;97279.03;5045668;28;20132;-74
2023/11/05 09:15:17;;;;;;;3.58;0.70;;;;;;;19.21;50.00;97285.69;5045560;28;20029;-72
2023/11/05 09:17:42;;;;;;;3.25;0.80;;;;;;;19.21;50.08;97285.69;5045832;28;20055;-74
2023/11/05 09:20:10;;;;;;;3.35;0.90;;;;;;;19.21;50.00;97298.88;5028175;28;20028;-73
2023/11/05 09:22:36;;;;;;;3.15;0.90;;;;;;;19.22;50.16;97299.69;5045641;28;20037;-73
2023/11/05 09:25:04;;;;;;;3.38;0.77;;;;;;;19.20;50.21;97301.72;5046538;28;20072;-71
2023/11/05 09:27:30;;;;;;;3.63;0.90;;;;;;;19.21;50.39;97308.63;5045669;28;20032;-71
2023/11/05 09:29:55;;;;;;;2.55;0.70;;;;;;;19.22;50.16;97307.63;5043318;28;20025;-74
2023/11/05 09:32:21;;;;;;;2.90;0.98;;;;;;;19.20;50.35;97307.84;5045999;28;20087;-73
2023/11/05 09:34:47;;;;;;;3.78;0.98;;;;;;;19.18;50.69;97315.19;5045788;28;20052;-72
2023/11/05 09:37:12;;;;;;;2.25;0.73;;;;;;;19.20;50.62;97326.31;5045639;28;20117;-72
2023/11/05 09:39:37;;;;;;;3.50;1.45;;;;;;;19.21;50.66;97337.69;5045873;28;20029;-71
2023/11/05 09:42:03;;;;;;;3.30;0.98;;;;;;;19.20;50.72;97330.78;5045777;28;20037;-71
2023/11/05 09:44:28;;;;;;;2.95;1.08;;;;;;;19.19;50.98;97345.81;5045219;28;20040;-71
2023/11/05 09:46:55;;;;;;;3.47;0.90;;;;;;;19.20;50.90;97352.72;5045316;28;20533;-71
2023/11/05 09:49:20;;;;;;;3.13;0.85;;;;;;;19.20;51.03;97357.16;5045365;28;20037;-72
2023/11/05 09:51:50;;;;;;;2.15;0.70;;;;;;;19.24;50.75;97360.19;5045228;28;20394;-73
2023/11/05 09:54:16;;;;;;;3.45;1.20;;;;;;;19.24;50.98;97371.56;5044690;28;20032;-72
2023/11/05 09:56:41;;;;;;;3.58;0.90;;;;;;;19.24;50.90;97374.19;5045062;28;20022;-72
2023/11/05 09:59:06;;;;;;;3.38;0.75;;;;;;;19.25;51.22;97385.56;5044846;28;20565;-73
2023/11/05 10:01:35;;;;;;;2.90;0.85;;;;;;;19.24;51.25;97392.69;5045090;28;20103;-72
2023/11/05 10:04:05;;;;;;;4.05;1.00;;;;;;;19.23;51.27;97395.53;5044887;28;20055;-73
2023/11/05 10:06:32;;;;;;;3.53;0.90;;;;;;;19.23;51.43;97408.72;5045404;28;20033;-72
2023/11/05 10:08:58;;;;;;;5.32;1.40;;;;;;;19.22;51.27;97410.56;5045211;28;20025;-70
2023/11/05 10:11:24;;;;;;;5.15;0.90;;;;;;;19.24;51.26;97426.19;5045240;28;20040;-69
2023/11/05 10:13:50;;;;;;;4.40;1.00;;;;;;;19.26;51.34;97430.22;5045093;28;20408;-72
2023/11/05 10:16:20;;;;;;;3.72;1.05;;;;;;;19.25;51.29;97448.91;5026543;28;20033;-70
2023/11/05 10:18:51;;;;;;;6.15;1.20;;;;;;;19.22;52.07;97452.81;5044911;28;20377;-72
2023/11/05 10:21:17;;;;;;;5.10;1.60;;;;;;;19.25;52.58;97464.75;5044838;28;20049;-72
2023/11/05 10:23:50;;;;;;;5.72;1.73;;;;;;;19.26;52.99;97474.31;5043917;28;20070;-70
2023/11/05 10:26:27;;;;;;;4.63;1.65;;;;;;;19.26;53.26;97483.03;5044627;28;20029;-73
2023/11/05 10:28:53;;;;;;;7.25;2.10;;;;;;;19.27;53.12;97482.00;5047812;28;20075;-71
2023/11/05 10:31:21;;;;;;;7.80;2.17;;;;;;;19.27;53.42;97495.22;5048576;28;20029;-71
2023/11/05 10:33:49;;;;;;;5.22;1.70;;;;;;;19.28;53.31;97499.47;5048313;28;20037;-72
2023/11/05 10:36:15;;;;;;;6.35;2.30;;;;;;;19.29;53.54;97513.47;5048662;28;20508;-72
2023/11/05 10:38:41;;;;;;;5.45;1.75;;;;;;;19.30;53.61;97523.03;5047810;28;20025;-71
2023/11/05 10:41:08;;;;;;;6.78;2.25;;;;;;;19.29;53.47;97526.69;5047870;28;20128;-69
2023/11/05 10:43:34;;;;;;;7.55;2.10;;;;;;;19.37;53.14;97535.16;5040669;28;20029;-67
2023/11/05 10:45:59;;;;;;;6.07;1.60;;;;;;;19.38;53.29;97536.78;5029662;28;20039;-69
2023/11/05 10:48:28;;;;;;;6.93;1.75;;;;;;;19.38;53.42;97567.66;5047545;28;20037;-65
2023/11/05 10:50:55;;;;;;;5.68;1.88;;;;;;;19.34;53.41;97564.63;5046935;28;20028;-68
2023/11/05 10:53:21;;;;;;;5.55;1.75;;;;;;;19.28;53.57;97557.56;5047641;28;20028;-67
2023/11/05 10:55:48;;;;;;;5.10;1.42;;;;;;;19.27;53.56;97573.63;5047718;28;20052;-70
2023/11/05 10:58:19;;;;;;;8.43;1.77;;;;;;;19.25;53.60;97581.75;5046779;28;20045;-69
2023/11/05 11:00:48;;;;;;;7.00;2.17;;;;;;;19.20;53.68;97586.81;5047125;28;20361;-69
2023/11/05 11:03:14;;;;;;;6.65;1.90;;;;;;;19.21;53.64;97604.28;5047650;28;20043;-69
2023/11/05 11:05:42;;;;;;;7.15;1.73;;;;;;;19.19;53.54;97612.41;5047809;28;20021;-68
2023/11/05 11:08:12;;;;;;;6.82;1.60;;;;;;;19.19;53.33;97619.53;5047112;28;20028;-69
2023/11/05 11:10:38;;;;;;;5.60;1.80;;;;;;;19.23;52.87;97631.28;5047136;28;20033;-71
2023/11/05 11:13:15;;;;;;;6.82;1.90;;;;;;;19.23;53.14;97633.13;5047146;28;20086;-70
2023/11/05 11:15:44;;;;;;;6.90;1.83;;;;;;;19.27;53.06;97642.25;5047003;28;20029;-69
2023/11/05 11:18:21;;;;;;;6.15;1.88;;;;;;;19.27;52.93;97655.47;5047425;28;20112;-69
2023/11/05 11:20:47;;;;;;;6.22;1.80;;;;;;;19.26;52.94;97654.63;5046902;28;20079;-69
2023/11/05 11:23:19;;;;;;;6.85;2.03;;;;;;;19.24;52.99;97658.50;5047112;28;20116;-68
2023/11/05 11:26:01;;;;;;;8.25;1.95;;;;;;;19.28;52.67;97672.91;5027752;28;20124;-70
2023/11/05 11:28:27;;;;;;;5.43;1.50;;;;;;;19.28;52.76;97679.00;5045193;28;20043;-71